sensor_id;sensor_type;location;lat;lon;timestamp;pressure;altitude;pressure_sealevel;temperature;humidity
75497;BME280;64074;47.540;19.072;2023-07-31T00:00:11;100239.72;;;20.97;74.55
75497;BME280;64074;47.540;19.072;2023-07-31T00:03:15;100239.91;;;20.85;74.62
75497;BME280;64074;47.540;19.072;2023-07-31T00:06:18;100236.94;;;20.97;74.29
75497;BME280;64074;47.540;19.072;2023-07-31T00:09:21;100239.72;;;20.97;73.75
75497;BME280;64074;47.540;19.072;2023-07-31T00:12:24;100241.34;;;21.02;73.70
75497;BME280;64074;47.540;19.072;2023-07-31T00:15:27;100235.72;;;20.95;73.72
75497;BME280;64074;47.540;19.072;2023-07-31T00:18:30;100241.91;;;20.88;73.58
75497;BME280;64074;47.540;19.072;2023-07-31T00:21:33;100238.75;;;20.86;73.35
75497;BME280;64074;47.540;19.072;2023-07-31T00:24:35;100244.63;;;20.84;73.71
75497;BME280;64074;47.540;19.072;2023-07-31T00:27:38;100244.63;;;20.84;73.53
75497;BME280;64074;47.540;19.072;2023-07-31T00:30:41;100244.19;;;20.82;73.83
75497;BME280;64074;47.540;19.072;2023-07-31T00:33:44;100250.78;;;20.78;73.81
75497;BME280;64074;47.540;19.072;2023-07-31T00:36:47;100252.09;;;20.84;73.79
75497;BME280;64074;47.540;19.072;2023-07-31T00:39:51;100253.09;;;20.76;74.02
75497;BME280;64074;47.540;19.072;2023-07-31T00:42:56;100259.78;;;20.75;74.16
75497;BME280;64074;47.540;19.072;2023-07-31T00:45:59;100262.84;;;20.70;74.37
75497;BME280;64074;47.540;19.072;2023-07-31T00:49:06;100266.69;;;20.65;74.46
75497;BME280;64074;47.540;19.072;2023-07-31T00:52:10;100258.00;;;20.63;74.39
75497;BME280;64074;47.540;19.072;2023-07-31T00:55:13;100263.63;;;20.70;74.67
75497;BME280;64074;47.540;19.072;2023-07-31T00:58:16;100266.88;;;20.76;74.50
75497;BME280;64074;47.540;19.072;2023-07-31T01:01:19;100276.75;;;20.77;74.62
75497;BME280;64074;47.540;19.072;2023-07-31T01:04:23;100273.84;;;20.70;74.92
75497;BME280;64074;47.540;19.072;2023-07-31T01:07:33;100264.78;;;20.69;74.96
75497;BME280;64074;47.540;19.072;2023-07-31T01:10:46;100262.47;;;20.71;74.72
75497;BME280;64074;47.540;19.072;2023-07-31T01:13:53;100265.59;;;20.50;75.47
75497;BME280;64074;47.540;19.072;2023-07-31T01:16:57;100265.38;;;20.40;75.82
75497;BME280;64074;47.540;19.072;2023-07-31T01:20:03;100273.78;;;20.27;76.27
75497;BME280;64074;47.540;19.072;2023-07-31T01:26:34;100275.00;;;20.11;76.73
75497;BME280;64074;47.540;19.072;2023-07-31T01:29:49;100281.38;;;20.15;76.81
75497;BME280;64074;47.540;19.072;2023-07-31T01:32:55;100283.75;;;19.97;77.45
75497;BME280;64074;47.540;19.072;2023-07-31T01:36:01;100286.47;;;20.13;76.92
75497;BME280;64074;47.540;19.072;2023-07-31T01:39:05;100278.31;;;20.01;77.62
75497;BME280;64074;47.540;19.072;2023-07-31T01:42:07;100276.56;;;19.92;78.17
75497;BME280;64074;47.540;19.072;2023-07-31T01:45:12;100271.28;;;20.03;77.61
75497;BME280;64074;47.540;19.072;2023-07-31T01:48:15;100274.41;;;20.02;78.01
75497;BME280;64074;47.540;19.072;2023-07-31T01:51:18;100278.69;;;19.99;78.11
75497;BME280;64074;47.540;19.072;2023-07-31T01:54:21;100275.63;;;19.85;78.43
75497;BME280;64074;47.540;19.072;2023-07-31T01:57:23;100264.25;;;19.86;78.48
75497;BME280;64074;47.540;19.072;2023-07-31T02:00:26;100262.31;;;19.87;78.42
75497;BME280;64074;47.540;19.072;2023-07-31T02:03:30;100264.50;;;19.81;78.86
75497;BME280;64074;47.540;19.072;2023-07-31T02:06:32;100260.53;;;19.79;79.36
75497;BME280;64074;47.540;19.072;2023-07-31T02:09:35;100256.44;;;19.88;78.21
75497;BME280;64074;47.540;19.072;2023-07-31T02:12:38;100258.19;;;19.96;77.85
75497;BME280;64074;47.540;19.072;2023-07-31T02:15:42;100255.72;;;19.91;77.91
75497;BME280;64074;47.540;19.072;2023-07-31T02:18:44;100259.00;;;19.62;78.83
75497;BME280;64074;47.540;19.072;2023-07-31T02:21:47;100261.47;;;19.67;78.51
75497;BME280;64074;47.540;19.072;2023-07-31T02:24:51;100266.69;;;19.72;78.35
75497;BME280;64074;47.540;19.072;2023-07-31T02:27:56;100275.56;;;19.65;78.20
75497;BME280;64074;47.540;19.072;2023-07-31T02:31:00;100266.25;;;19.54;78.41
75497;BME280;64074;47.540;19.072;2023-07-31T02:34:03;100264.22;;;19.67;78.13
75497;BME280;64074;47.540;19.072;2023-07-31T02:37:07;100271.50;;;19.44;78.59
75497;BME280;64074;47.540;19.072;2023-07-31T02:40:10;100272.38;;;19.63;77.84
75497;BME280;64074;47.540;19.072;2023-07-31T02:43:13;100272.38;;;19.63;77.70
75497;BME280;64074;47.540;19.072;2023-07-31T02:46:16;100261.56;;;19.55;77.65
75497;BME280;64074;47.540;19.072;2023-07-31T02:49:19;100264.41;;;19.43;77.80
75497;BME280;64074;47.540;19.072;2023-07-31T02:52:22;100276.66;;;19.61;77.12
75497;BME280;64074;47.540;19.072;2023-07-31T02:55:25;100275.13;;;19.48;77.87
75497;BME280;64074;47.540;19.072;2023-07-31T02:58:27;100282.75;;;19.39;78.14
75497;BME280;64074;47.540;19.072;2023-07-31T03:01:31;100283.72;;;19.46;77.66
75497;BME280;64074;47.540;19.072;2023-07-31T03:04:34;100290.94;;;19.35;77.86
75497;BME280;64074;47.540;19.072;2023-07-31T03:07:38;100296.66;;;19.30;77.98
75497;BME280;64074;47.540;19.072;2023-07-31T03:10:42;100287.81;;;19.21;78.48
75497;BME280;64074;47.540;19.072;2023-07-31T03:13:44;100294.81;;;19.18;78.19
75497;BME280;64074;47.540;19.072;2023-07-31T03:16:47;100297.56;;;19.18;78.17
75497;BME280;64074;47.540;19.072;2023-07-31T03:19:50;100294.91;;;19.22;78.44
75497;BME280;64074;47.540;19.072;2023-07-31T03:22:53;100289.41;;;19.38;77.81
75497;BME280;64074;47.540;19.072;2023-07-31T03:26:01;100302.72;;;19.35;77.09
75497;BME280;64074;47.540;19.072;2023-07-31T03:29:05;100299.06;;;19.16;78.08
75497;BME280;64074;47.540;19.072;2023-07-31T03:32:08;100300.31;;;19.18;78.03
75497;BME280;64074;47.540;19.072;2023-07-31T03:35:11;100300.03;;;19.23;77.70
75497;BME280;64074;47.540;19.072;2023-07-31T03:38:14;100303.78;;;19.15;77.55
75497;BME280;64074;47.540;19.072;2023-07-31T03:41:17;100306.78;;;19.10;77.96
75497;BME280;64074;47.540;19.072;2023-07-31T03:44:22;100307.31;;;19.31;76.81
75497;BME280;64074;47.540;19.072;2023-07-31T03:47:26;100309.19;;;19.43;76.31
75497;BME280;64074;47.540;19.072;2023-07-31T03:50:29;100313.78;;;19.23;77.13
75497;BME280;64074;47.540;19.072;2023-07-31T03:53:31;100322.41;;;19.22;77.09
75497;BME280;64074;47.540;19.072;2023-07-31T03:56:34;100317.88;;;19.29;76.62
75497;BME280;64074;47.540;19.072;2023-07-31T03:59:38;100312.84;;;19.63;75.52
75497;BME280;64074;47.540;19.072;2023-07-31T04:02:41;100314.59;;;19.55;75.20
75497;BME280;64074;47.540;19.072;2023-07-31T04:05:46;100311.06;;;19.71;75.04
75497;BME280;64074;47.540;19.072;2023-07-31T04:08:50;100315.75;;;19.86;73.96
75497;BME280;64074;47.540;19.072;2023-07-31T04:11:54;100322.84;;;19.87;74.41
75497;BME280;64074;47.540;19.072;2023-07-31T04:14:56;100322.47;;;19.88;73.72
75497;BME280;64074;47.540;19.072;2023-07-31T04:18:00;100323.06;;;19.62;74.52
75497;BME280;64074;47.540;19.072;2023-07-31T04:21:03;100317.72;;;19.70;73.88
75497;BME280;64074;47.540;19.072;2023-07-31T04:24:06;100327.84;;;19.65;73.79
75497;BME280;64074;47.540;19.072;2023-07-31T04:27:09;100318.84;;;19.53;73.81
75497;BME280;64074;47.540;19.072;2023-07-31T04:30:12;100323.00;;;19.78;73.30
75497;BME280;64074;47.540;19.072;2023-07-31T04:33:15;100322.19;;;19.58;73.69
75497;BME280;64074;47.540;19.072;2023-07-31T04:36:18;100323.28;;;19.73;73.18
75497;BME280;64074;47.540;19.072;2023-07-31T04:39:21;100314.16;;;19.85;72.22
75497;BME280;64074;47.540;19.072;2023-07-31T04:42:24;100319.91;;;19.80;72.34
75497;BME280;64074;47.540;19.072;2023-07-31T04:45:26;100322.28;;;19.81;71.98
75497;BME280;64074;47.540;19.072;2023-07-31T04:48:30;100331.91;;;19.87;72.05
75497;BME280;64074;47.540;19.072;2023-07-31T04:51:32;100333.94;;;19.90;71.85
75497;BME280;64074;47.540;19.072;2023-07-31T04:54:35;100332.50;;;19.81;71.77
75497;BME280;64074;47.540;19.072;2023-07-31T04:57:38;100337.66;;;19.82;71.46
75497;BME280;64074;47.540;19.072;2023-07-31T05:00:41;100337.56;;;19.79;71.66
75497;BME280;64074;47.540;19.072;2023-07-31T05:03:44;100337.84;;;19.89;71.01
75497;BME280;64074;47.540;19.072;2023-07-31T05:06:47;100336.97;;;19.85;70.58
75497;BME280;64074;47.540;19.072;2023-07-31T05:09:49;100338.38;;;19.79;69.82
75497;BME280;64074;47.540;19.072;2023-07-31T05:12:52;100322.50;;;19.73;68.58
75497;BME280;64074;47.540;19.072;2023-07-31T05:15:55;100333.41;;;19.85;68.64
75497;BME280;64074;47.540;19.072;2023-07-31T05:18:58;100334.75;;;19.75;68.29
75497;BME280;64074;47.540;19.072;2023-07-31T05:22:02;100342.03;;;19.67;67.46
75497;BME280;64074;47.540;19.072;2023-07-31T05:25:06;100339.22;;;19.99;67.09
75497;BME280;64074;47.540;19.072;2023-07-31T05:28:09;100346.09;;;19.89;66.00
75497;BME280;64074;47.540;19.072;2023-07-31T05:31:12;100344.28;;;19.97;65.61
75497;BME280;64074;47.540;19.072;2023-07-31T05:34:16;100339.31;;;20.03;65.49
75497;BME280;64074;47.540;19.072;2023-07-31T05:37:19;100339.94;;;19.96;64.91
75497;BME280;64074;47.540;19.072;2023-07-31T05:40:22;100346.97;;;19.93;64.13
75497;BME280;64074;47.540;19.072;2023-07-31T05:43:25;100342.81;;;20.19;62.76
75497;BME280;64074;47.540;19.072;2023-07-31T05:46:28;100328.38;;;20.06;62.34
75497;BME280;64074;47.540;19.072;2023-07-31T05:49:32;100340.78;;;20.16;61.59
75497;BME280;64074;47.540;19.072;2023-07-31T05:52:35;100339.84;;;20.43;60.75
75497;BME280;64074;47.540;19.072;2023-07-31T05:55:38;100347.44;;;20.50;60.72
75497;BME280;64074;47.540;19.072;2023-07-31T05:58:41;100350.16;;;20.66;60.35
75497;BME280;64074;47.540;19.072;2023-07-31T06:01:45;100350.94;;;20.31;61.12
75497;BME280;64074;47.540;19.072;2023-07-31T06:04:48;100351.44;;;20.52;60.32
75497;BME280;64074;47.540;19.072;2023-07-31T06:07:52;100357.66;;;20.49;60.34
75497;BME280;64074;47.540;19.072;2023-07-31T06:10:55;100356.22;;;20.75;60.42
75497;BME280;64074;47.540;19.072;2023-07-31T06:13:57;100354.84;;;20.84;60.01
75497;BME280;64074;47.540;19.072;2023-07-31T06:17:00;100356.69;;;20.57;59.46
75497;BME280;64074;47.540;19.072;2023-07-31T06:20:03;100363.91;;;20.66;59.14
75497;BME280;64074;47.540;19.072;2023-07-31T06:23:10;100364.13;;;20.57;58.89
75497;BME280;64074;47.540;19.072;2023-07-31T06:26:12;100367.84;;;20.84;58.99
75497;BME280;64074;47.540;19.072;2023-07-31T06:29:15;100359.69;;;20.91;58.56
75497;BME280;64074;47.540;19.072;2023-07-31T06:32:18;100354.75;;;20.81;58.81
75497;BME280;64074;47.540;19.072;2023-07-31T06:35:21;100358.59;;;20.96;58.26
75497;BME280;64074;47.540;19.072;2023-07-31T06:38:25;100348.75;;;20.95;58.36
75497;BME280;64074;47.540;19.072;2023-07-31T06:41:28;100359.22;;;21.28;58.23
75497;BME280;64074;47.540;19.072;2023-07-31T06:44:31;100360.81;;;21.29;58.15
75497;BME280;64074;47.540;19.072;2023-07-31T06:47:34;100356.09;;;20.87;58.57
75497;BME280;64074;47.540;19.072;2023-07-31T06:50:37;100357.94;;;21.02;58.51
75497;BME280;64074;47.540;19.072;2023-07-31T06:53:41;100355.41;;;20.94;58.80
75497;BME280;64074;47.540;19.072;2023-07-31T06:56:45;100362.00;;;21.08;59.29
75497;BME280;64074;47.540;19.072;2023-07-31T06:59:48;100368.31;;;21.09;58.59
75497;BME280;64074;47.540;19.072;2023-07-31T07:02:51;100357.38;;;20.74;59.42
75497;BME280;64074;47.540;19.072;2023-07-31T07:05:55;100363.06;;;20.62;59.76
75497;BME280;64074;47.540;19.072;2023-07-31T07:08:58;100366.88;;;20.76;59.31
75497;BME280;64074;47.540;19.072;2023-07-31T07:12:01;100373.84;;;20.89;59.57
75497;BME280;64074;47.540;19.072;2023-07-31T07:15:04;100372.47;;;20.80;59.51
75497;BME280;64074;47.540;19.072;2023-07-31T07:18:07;100368.09;;;20.79;59.45
75497;BME280;64074;47.540;19.072;2023-07-31T07:21:14;100392.28;;;20.85;59.00
75497;BME280;64074;47.540;19.072;2023-07-31T07:24:18;100379.78;;;20.92;59.06
75497;BME280;64074;47.540;19.072;2023-07-31T07:27:21;100379.00;;;20.91;58.84
75497;BME280;64074;47.540;19.072;2023-07-31T07:30:24;100378.13;;;20.87;58.50
75497;BME280;64074;47.540;19.072;2023-07-31T07:33:27;100393.31;;;21.19;58.03
75497;BME280;64074;47.540;19.072;2023-07-31T07:36:31;100378.25;;;21.13;56.99
75497;BME280;64074;47.540;19.072;2023-07-31T07:39:35;100373.47;;;21.10;57.06
75497;BME280;64074;47.540;19.072;2023-07-31T07:42:38;100378.72;;;21.38;56.20
75497;BME280;64074;47.540;19.072;2023-07-31T07:45:41;100389.75;;;21.38;54.56
75497;BME280;64074;47.540;19.072;2023-07-31T07:48:44;100376.22;;;21.10;54.98
75497;BME280;64074;47.540;19.072;2023-07-31T07:51:47;100370.91;;;21.21;54.35
75497;BME280;64074;47.540;19.072;2023-07-31T07:54:51;100356.72;;;21.00;54.78
75497;BME280;64074;47.540;19.072;2023-07-31T07:57:54;100371.44;;;21.07;55.00
75497;BME280;64074;47.540;19.072;2023-07-31T08:00:57;100368.00;;;21.33;51.71
75497;BME280;64074;47.540;19.072;2023-07-31T08:04:01;100355.63;;;21.46;51.81
75497;BME280;64074;47.540;19.072;2023-07-31T08:07:04;100365.72;;;21.62;50.61
75497;BME280;64074;47.540;19.072;2023-07-31T08:10:08;100374.28;;;21.79;50.53
75497;BME280;64074;47.540;19.072;2023-07-31T08:13:13;100362.25;;;21.91;50.28
75497;BME280;64074;47.540;19.072;2023-07-31T08:16:16;100365.97;;;22.29;49.64
75497;BME280;64074;47.540;19.072;2023-07-31T08:19:19;100363.03;;;22.15;48.23
75497;BME280;64074;47.540;19.072;2023-07-31T08:22:23;100359.53;;;22.48;48.72
75497;BME280;64074;47.540;19.072;2023-07-31T08:25:26;100354.41;;;22.50;48.65
75497;BME280;64074;47.540;19.072;2023-07-31T08:28:30;100361.38;;;22.70;47.33
75497;BME280;64074;47.540;19.072;2023-07-31T08:31:33;100352.13;;;22.55;47.34
75497;BME280;64074;47.540;19.072;2023-07-31T08:34:37;100369.19;;;22.31;49.05
75497;BME280;64074;47.540;19.072;2023-07-31T08:37:40;100363.34;;;22.69;49.33
75497;BME280;64074;47.540;19.072;2023-07-31T08:40:44;100370.66;;;22.55;48.45
75497;BME280;64074;47.540;19.072;2023-07-31T08:43:49;100353.78;;;22.60;47.84
75497;BME280;64074;47.540;19.072;2023-07-31T08:46:52;100374.53;;;22.80;46.87
75497;BME280;64074;47.540;19.072;2023-07-31T08:49:57;100347.41;;;22.86;46.73
75497;BME280;64074;47.540;19.072;2023-07-31T08:53:00;100353.78;;;22.60;46.60
75497;BME280;64074;47.540;19.072;2023-07-31T08:56:03;100350.72;;;23.02;47.11
75497;BME280;64074;47.540;19.072;2023-07-31T08:59:06;100353.84;;;23.00;46.13
75497;BME280;64074;47.540;19.072;2023-07-31T09:02:13;100367.06;;;22.81;46.22
75497;BME280;64074;47.540;19.072;2023-07-31T09:05:17;100350.75;;;22.72;46.03
75497;BME280;64074;47.540;19.072;2023-07-31T09:08:21;100360.66;;;22.77;45.31
75497;BME280;64074;47.540;19.072;2023-07-31T09:11:26;100345.28;;;23.09;45.20
75497;BME280;64074;47.540;19.072;2023-07-31T09:14:30;100351.03;;;23.30;45.88
75497;BME280;64074;47.540;19.072;2023-07-31T09:17:35;100338.47;;;23.03;46.98
75497;BME280;64074;47.540;19.072;2023-07-31T09:20:41;100343.78;;;23.19;46.97
75497;BME280;64074;47.540;19.072;2023-07-31T09:23:46;100342.63;;;23.23;47.61
75497;BME280;64074;47.540;19.072;2023-07-31T09:26:53;100348.41;;;23.48;45.76
75497;BME280;64074;47.540;19.072;2023-07-31T09:30:01;100356.63;;;23.41;45.11
75497;BME280;64074;47.540;19.072;2023-07-31T09:33:05;100349.53;;;23.44;45.61
75497;BME280;64074;47.540;19.072;2023-07-31T09:36:12;100347.56;;;23.03;46.81
75497;BME280;64074;47.540;19.072;2023-07-31T09:39:17;100331.13;;;23.18;45.98
75497;BME280;64074;47.540;19.072;2023-07-31T09:42:26;100349.94;;;23.42;43.57
75497;BME280;64074;47.540;19.072;2023-07-31T09:45:33;100339.84;;;23.60;42.80
75497;BME280;64074;47.540;19.072;2023-07-31T09:48:42;100343.47;;;23.27;44.03
75497;BME280;64074;47.540;19.072;2023-07-31T09:51:46;100334.53;;;23.04;45.08
75497;BME280;64074;47.540;19.072;2023-07-31T09:54:48;100337.06;;;23.20;45.54
75497;BME280;64074;47.540;19.072;2023-07-31T09:57:51;100319.25;;;23.58;45.64
75497;BME280;64074;47.540;19.072;2023-07-31T10:00:57;100328.38;;;23.62;45.64
75497;BME280;64074;47.540;19.072;2023-07-31T10:04:02;100336.34;;;23.71;44.29
75497;BME280;64074;47.540;19.072;2023-07-31T10:07:07;100343.19;;;23.84;44.43
75497;BME280;64074;47.540;19.072;2023-07-31T10:10:11;100334.41;;;23.75;43.22
75497;BME280;64074;47.540;19.072;2023-07-31T10:13:15;100329.50;;;24.12;43.10
75497;BME280;64074;47.540;19.072;2023-07-31T10:16:19;100328.44;;;23.73;43.05
75497;BME280;64074;47.540;19.072;2023-07-31T10:19:23;100340.69;;;23.68;43.00
75497;BME280;64074;47.540;19.072;2023-07-31T10:22:27;100330.59;;;23.97;42.63
75497;BME280;64074;47.540;19.072;2023-07-31T10:25:31;100342.84;;;23.96;41.63
75497;BME280;64074;47.540;19.072;2023-07-31T10:28:36;100332.25;;;24.05;42.25
75497;BME280;64074;47.540;19.072;2023-07-31T10:31:40;100323.06;;;23.94;42.77
75497;BME280;64074;47.540;19.072;2023-07-31T10:34:45;100322.44;;;24.22;42.74
75497;BME280;64074;47.540;19.072;2023-07-31T10:37:50;100324.91;;;24.31;42.63
75497;BME280;64074;47.540;19.072;2023-07-31T10:41:08;100313.03;;;24.34;42.68
75497;BME280;64074;47.540;19.072;2023-07-31T10:44:13;100314.22;;;24.33;42.78
75497;BME280;64074;47.540;19.072;2023-07-31T10:47:18;100326.13;;;24.44;42.66
75497;BME280;64074;47.540;19.072;2023-07-31T10:50:22;100319.63;;;24.15;43.46
75497;BME280;64074;47.540;19.072;2023-07-31T10:53:31;100307.19;;;24.64;42.60
75497;BME280;64074;47.540;19.072;2023-07-31T10:56:37;100321.53;;;24.94;41.73
75497;BME280;64074;47.540;19.072;2023-07-31T10:59:42;100310.03;;;24.85;41.29
75497;BME280;64074;47.540;19.072;2023-07-31T11:03:09;100324.63;;;24.57;41.17
75497;BME280;64074;47.540;19.072;2023-07-31T11:06:19;100325.50;;;24.97;40.98
75497;BME280;64074;47.540;19.072;2023-07-31T11:09:24;100307.28;;;24.96;40.06
75497;BME280;64074;47.540;19.072;2023-07-31T11:12:30;100295.84;;;25.43;39.65
75497;BME280;64074;47.540;19.072;2023-07-31T11:15:33;100298.25;;;25.56;38.99
75497;BME280;64074;47.540;19.072;2023-07-31T11:18:41;100290.28;;;25.51;38.92
75497;BME280;64074;47.540;19.072;2023-07-31T11:21:44;100288.72;;;25.71;39.31
75497;BME280;64074;47.540;19.072;2023-07-31T11:24:48;100293.09;;;25.79;37.82
75497;BME280;64074;47.540;19.072;2023-07-31T11:27:51;100279.59;;;25.60;37.78
75497;BME280;64074;47.540;19.072;2023-07-31T11:30:56;100277.44;;;26.35;36.87
75497;BME280;64074;47.540;19.072;2023-07-31T11:34:05;100276.25;;;26.29;36.54
75497;BME280;64074;47.540;19.072;2023-07-31T11:37:08;100293.31;;;26.38;36.63
75497;BME280;64074;47.540;19.072;2023-07-31T11:40:12;100276.34;;;26.08;37.52
75497;BME280;64074;47.540;19.072;2023-07-31T11:43:15;100276.31;;;26.11;36.56
75497;BME280;64074;47.540;19.072;2023-07-31T11:46:22;100288.53;;;26.42;37.24
75497;BME280;64074;47.540;19.072;2023-07-31T11:49:26;100278.53;;;26.52;36.53
75497;BME280;64074;47.540;19.072;2023-07-31T11:52:32;100269.81;;;26.50;36.23
75497;BME280;64074;47.540;19.072;2023-07-31T11:55:37;100267.84;;;27.16;35.57
75497;BME280;64074;47.540;19.072;2023-07-31T11:58:40;100272.22;;;27.66;35.23
75497;BME280;64074;47.540;19.072;2023-07-31T12:01:44;100270.13;;;27.28;35.17
75497;BME280;64074;47.540;19.072;2023-07-31T12:04:48;100260.34;;;27.54;34.41
75497;BME280;64074;47.540;19.072;2023-07-31T12:07:52;100275.91;;;28.31;34.68
75497;BME280;64074;47.540;19.072;2023-07-31T12:11:03;100263.44;;;27.67;34.69
75497;BME280;64074;47.540;19.072;2023-07-31T12:14:07;100255.50;;;28.37;32.96
75497;BME280;64074;47.540;19.072;2023-07-31T12:17:12;100252.91;;;29.07;32.29
75497;BME280;64074;47.540;19.072;2023-07-31T12:20:20;100244.72;;;28.66;32.49
75497;BME280;64074;47.540;19.072;2023-07-31T12:23:34;100243.97;;;29.16;31.32
75497;BME280;64074;47.540;19.072;2023-07-31T12:26:38;100245.16;;;28.92;31.96
75497;BME280;64074;47.540;19.072;2023-07-31T12:29:42;100237.28;;;29.80;30.57
75497;BME280;64074;47.540;19.072;2023-07-31T12:32:48;100227.25;;;30.02;30.64
75497;BME280;64074;47.540;19.072;2023-07-31T12:35:51;100229.38;;;30.71;30.01
75497;BME280;64074;47.540;19.072;2023-07-31T12:38:54;100239.34;;;31.24;29.03
75497;BME280;64074;47.540;19.072;2023-07-31T12:41:59;100221.44;;;30.33;30.32
75497;BME280;64074;47.540;19.072;2023-07-31T12:45:03;100223.03;;;31.35;28.85
75497;BME280;64074;47.540;19.072;2023-07-31T12:48:07;100228.59;;;29.94;30.62
75497;BME280;64074;47.540;19.072;2023-07-31T12:51:13;100210.44;;;30.78;29.50
75497;BME280;64074;47.540;19.072;2023-07-31T12:54:19;100209.53;;;31.14;28.97
75497;BME280;64074;47.540;19.072;2023-07-31T12:57:22;100219.81;;;31.66;28.00
75497;BME280;64074;47.540;19.072;2023-07-31T13:00:25;100198.00;;;30.79;29.01
75497;BME280;64074;47.540;19.072;2023-07-31T13:03:29;100199.53;;;31.45;28.17
75497;BME280;64074;47.540;19.072;2023-07-31T13:06:32;100201.38;;;31.52;28.42
75497;BME280;64074;47.540;19.072;2023-07-31T13:09:34;100199.72;;;32.63;25.92
75497;BME280;64074;47.540;19.072;2023-07-31T13:12:37;100191.66;;;32.53;25.72
75497;BME280;64074;47.540;19.072;2023-07-31T13:15:41;100191.53;;;32.43;25.83
75497;BME280;64074;47.540;19.072;2023-07-31T13:18:44;100195.94;;;32.83;25.58
75497;BME280;64074;47.540;19.072;2023-07-31T13:21:48;100192.09;;;31.39;28.27
75497;BME280;64074;47.540;19.072;2023-07-31T13:24:52;100191.59;;;32.14;26.76
75497;BME280;64074;47.540;19.072;2023-07-31T13:27:55;100181.91;;;33.17;25.56
75497;BME280;64074;47.540;19.072;2023-07-31T13:31:01;100178.72;;;33.41;25.24
75497;BME280;64074;47.540;19.072;2023-07-31T13:34:03;100177.16;;;32.29;26.48
75497;BME280;64074;47.540;19.072;2023-07-31T13:37:07;100188.41;;;32.80;26.10
75497;BME280;64074;47.540;19.072;2023-07-31T13:40:11;100176.25;;;31.48;27.33
75497;BME280;64074;47.540;19.072;2023-07-31T13:43:14;100168.53;;;31.52;27.82
75497;BME280;64074;47.540;19.072;2023-07-31T13:46:17;100167.56;;;32.13;26.50
75497;BME280;64074;47.540;19.072;2023-07-31T13:49:20;100173.13;;;31.59;27.32
75497;BME280;64074;47.540;19.072;2023-07-31T13:52:24;100164.31;;;33.39;24.71
75497;BME280;64074;47.540;19.072;2023-07-31T13:55:26;100160.53;;;32.34;25.85
75497;BME280;64074;47.540;19.072;2023-07-31T13:58:29;100166.50;;;32.49;26.91
75497;BME280;64074;47.540;19.072;2023-07-31T14:01:34;100155.75;;;31.80;26.99
75497;BME280;64074;47.540;19.072;2023-07-31T14:04:38;100147.13;;;33.37;25.17
75497;BME280;64074;47.540;19.072;2023-07-31T14:07:40;100152.81;;;33.46;24.39
75497;BME280;64074;47.540;19.072;2023-07-31T14:10:43;100153.53;;;33.02;25.19
75497;BME280;64074;47.540;19.072;2023-07-31T14:13:47;100155.28;;;32.49;25.79
75497;BME280;64074;47.540;19.072;2023-07-31T14:16:50;100152.88;;;31.39;27.13
75497;BME280;64074;47.540;19.072;2023-07-31T14:19:54;100146.25;;;30.35;28.86
75497;BME280;64074;47.540;19.072;2023-07-31T14:22:57;100148.09;;;29.86;29.19
75497;BME280;64074;47.540;19.072;2023-07-31T14:26:01;100148.00;;;30.45;29.20
75497;BME280;64074;47.540;19.072;2023-07-31T14:29:03;100143.22;;;29.70;30.43
75497;BME280;64074;47.540;19.072;2023-07-31T14:32:07;100139.72;;;29.66;30.89
75497;BME280;64074;47.540;19.072;2023-07-31T14:35:11;100137.78;;;31.49;27.87
75497;BME280;64074;47.540;19.072;2023-07-31T14:38:15;100139.03;;;31.77;27.43
75497;BME280;64074;47.540;19.072;2023-07-31T14:41:17;100133.50;;;30.99;27.99
75497;BME280;64074;47.540;19.072;2023-07-31T14:44:20;100119.41;;;31.90;26.56
75497;BME280;64074;47.540;19.072;2023-07-31T14:47:24;100128.41;;;31.68;26.95
75497;BME280;64074;47.540;19.072;2023-07-31T14:50:27;100140.59;;;31.91;27.31
75497;BME280;64074;47.540;19.072;2023-07-31T14:53:29;100125.84;;;30.18;29.30
75497;BME280;64074;47.540;19.072;2023-07-31T14:56:32;100131.78;;;29.64;29.78
75497;BME280;64074;47.540;19.072;2023-07-31T14:59:35;100125.66;;;29.30;29.90
75497;BME280;64074;47.540;19.072;2023-07-31T15:02:38;100122.44;;;29.91;29.78
75497;BME280;64074;47.540;19.072;2023-07-31T15:05:41;100116.91;;;29.87;29.71
75497;BME280;64074;47.540;19.072;2023-07-31T15:08:44;100123.31;;;29.05;31.08
75497;BME280;64074;47.540;19.072;2023-07-31T15:11:47;100118.63;;;29.41;30.40
75497;BME280;64074;47.540;19.072;2023-07-31T15:14:51;100118.66;;;29.18;30.45
75497;BME280;64074;47.540;19.072;2023-07-31T15:17:54;100109.47;;;29.41;30.59
75497;BME280;64074;47.540;19.072;2023-07-31T15:20:58;100115.69;;;28.59;31.68
75497;BME280;64074;47.540;19.072;2023-07-31T15:24:02;100122.19;;;28.25;32.17
75497;BME280;64074;47.540;19.072;2023-07-31T15:27:05;100114.22;;;28.24;32.43
75497;BME280;64074;47.540;19.072;2023-07-31T15:30:09;100105.84;;;28.77;31.59
75497;BME280;64074;47.540;19.072;2023-07-31T15:33:12;100109.78;;;28.30;31.49
75497;BME280;64074;47.540;19.072;2023-07-31T15:36:15;100097.44;;;28.54;31.40
75497;BME280;64074;47.540;19.072;2023-07-31T15:39:19;100095.38;;;28.58;31.57
75497;BME280;64074;47.540;19.072;2023-07-31T15:42:22;100102.19;;;28.57;31.14
75497;BME280;64074;47.540;19.072;2023-07-31T15:45:25;100100.28;;;28.74;30.34
75497;BME280;64074;47.540;19.072;2023-07-31T15:48:28;100085.00;;;28.35;31.03
75497;BME280;64074;47.540;19.072;2023-07-31T15:51:32;100081.19;;;28.49;31.23